Time;durP1;ratioP1;P1;durP2;ratioP2;P2;SDS_P1;SDS_P2;PMS_P1;PMS_P2;Temp;Humidity;BMP_temperature;BMP_pressure;BME280_temperature;BME280_humidity;BME280_pressure;Samples;Min_cycle;Max_cycle;Signal;HPM_P1;HPM_P2
2023/09/16 00:02:23;;;;;;;3.97;2.50;;;16.90;99.90;;;;;;5039110;28;20245;-71
2023/09/16 00:04:51;;;;;;;4.10;3.70;;;16.80;99.90;;;;;;5034101;28;20183;-70
2023/09/16 00:07:16;;;;;;;4.53;3.47;;;16.80;99.90;;;;;;5040160;28;20167;-70
2023/09/16 00:09:42;;;;;;;3.53;3.20;;;16.70;99.90;;;;;;5035294;28;20412;-70
2023/09/16 00:12:13;;;;;;;4.10;3.60;;;16.70;99.90;;;;;;5044276;28;20274;-70
2023/09/16 00:14:38;;;;;;;3.47;3.17;;;16.70;99.90;;;;;;5055037;28;20951;-69
2023/09/16 00:17:04;;;;;;;3.80;3.23;;;16.60;99.90;;;;;;5053707;28;20491;-69
2023/09/16 00:19:29;;;;;;;3.73;2.90;;;16.60;99.90;;;;;;5053420;28;20167;-71
2023/09/16 00:21:55;;;;;;;3.90;3.33;;;16.50;99.90;;;;;;5036194;28;20195;-70
2023/09/16 00:24:21;;;;;;;4.57;3.57;;;16.60;99.90;;;;;;5034784;28;20183;-70
2023/09/16 00:26:46;;;;;;;3.97;3.57;;;16.50;99.90;;;;;;5034910;28;20182;-70
2023/09/16 00:29:12;;;;;;;7.23;3.63;;;16.60;99.90;;;;;;5035047;28;20172;-69
2023/09/16 00:31:38;;;;;;;3.47;3.17;;;16.50;99.90;;;;;;5033622;28;20171;-70
2023/09/16 00:34:03;;;;;;;3.67;3.30;;;16.50;99.90;;;;;;5033404;28;20254;-70
2023/09/16 00:36:29;;;;;;;6.90;3.77;;;16.50;99.90;;;;;;5033755;28;20246;-72
2023/09/16 00:38:55;;;;;;;4.30;3.40;;;16.60;99.90;;;;;;5034827;28;20210;-71
2023/09/16 00:41:21;;;;;;;3.40;3.10;;;16.50;99.90;;;;;;5037037;28;20225;-71
2023/09/16 00:43:46;;;;;;;4.90;4.00;;;16.50;99.90;;;;;;5054256;28;20456;-71
2023/09/16 00:46:12;;;;;;;4.27;3.80;;;16.50;99.90;;;;;;5054512;28;20587;-71
2023/09/16 00:48:39;;;;;;;5.90;4.07;;;16.50;99.90;;;;;;5049825;28;20203;-71
2023/09/16 00:51:06;;;;;;;3.97;3.57;;;16.50;99.90;;;;;;5033413;28;20172;-70
2023/09/16 00:53:33;;;;;;;5.60;3.90;;;16.60;99.90;;;;;;5034386;28;20476;-71
2023/09/16 00:55:59;;;;;;;4.87;4.13;;;16.60;99.90;;;;;;5034629;28;20908;-70
2023/09/16 00:58:25;;;;;;;5.03;4.20;;;16.60;99.90;;;;;;5034599;28;20497;-71
2023/09/16 01:00:52;;;;;;;7.10;4.10;;;16.70;99.90;;;;;;5034234;28;20464;-71
2023/09/16 01:03:19;;;;;;;5.00;3.90;;;16.80;99.90;;;;;;5037786;28;20462;-71
2023/09/16 01:05:47;;;;;;;5.67;4.53;;;16.80;99.90;;;;;;5034019;28;20910;-71
2023/09/16 01:08:12;;;;;;;5.00;4.50;;;16.90;99.90;;;;;;5034187;28;20457;-70
2023/09/16 01:10:40;;;;;;;5.20;4.20;;;16.80;99.90;;;;;;5034217;28;20402;-71
2023/09/16 01:13:06;;;;;;;5.53;4.40;;;16.80;99.90;;;;;;5034219;28;20179;-71
2023/09/16 01:15:37;;;;;;;9.83;4.33;;;16.80;99.90;;;;;;5032672;28;20439;-71
2023/09/16 01:18:13;;;;;;;3.97;3.57;;;16.90;99.90;;;;;;5034250;28;20171;-70
2023/09/16 01:20:39;;;;;;;6.67;4.33;;;17.00;99.90;;;;;;5034070;28;20431;-71
2023/09/16 01:23:06;;;;;;;4.80;4.27;;;17.00;99.90;;;;;;5041940;28;20465;-70
2023/09/16 01:25:32;;;;;;;4.73;4.23;;;17.00;99.90;;;;;;5033471;28;20523;-70
2023/09/16 01:27:57;;;;;;;4.07;3.60;;;17.00;99.90;;;;;;5034009;28;20448;-70
2023/09/16 01:30:26;;;;;;;5.93;4.13;;;17.00;99.90;;;;;;5033987;28;20234;-70
2023/09/16 01:33:05;;;;;;;6.03;3.73;;;17.00;99.90;;;;;;5033699;28;20188;-70
2023/09/16 01:35:35;;;;;;;4.20;3.77;;;17.00;99.90;;;;;;5032405;28;20437;-70
2023/09/16 01:38:02;;;;;;;4.03;3.63;;;17.10;99.90;;;;;;5033761;28;20406;-70
2023/09/16 01:40:29;;;;;;;12.93;10.43;;;17.10;99.90;;;;;;5020584;28;20914;-71
2023/09/16 01:42:56;;;;;;;12.07;7.40;;;17.10;99.90;;;;;;5013610;28;20517;-71
2023/09/16 01:45:21;;;;;;;6.03;5.33;;;17.00;99.90;;;;;;5013608;28;20852;-70
2023/09/16 01:47:48;;;;;;;6.80;4.43;;;17.00;99.90;;;;;;5013739;28;20494;-70
2023/09/16 01:50:14;;;;;;;5.03;4.53;;;17.00;99.90;;;;;;5013854;28;20177;-71
2023/09/16 01:52:39;;;;;;;3.70;3.37;;;17.00;99.90;;;;;;5013549;28;20465;-71
2023/09/16 01:55:05;;;;;;;5.50;4.30;;;16.90;99.90;;;;;;5012954;28;20212;-71
2023/09/16 01:57:31;;;;;;;7.23;5.13;;;17.00;99.90;;;;;;5013358;28;20180;-71
2023/09/16 01:59:56;;;;;;;4.27;3.97;;;16.90;99.90;;;;;;5013617;28;20407;-72
2023/09/16 02:02:22;;;;;;;4.77;4.40;;;16.90;99.90;;;;;;5013529;28;20233;-71
2023/09/16 02:04:47;;;;;;;4.43;3.73;;;16.90;99.90;;;;;;5013126;28;20180;-72
2023/09/16 02:07:13;;;;;;;4.23;3.83;;;16.90;99.90;;;;;;5013573;28;20590;-72
2023/09/16 02:09:40;;;;;;;4.80;4.10;;;16.80;99.90;;;;;;5013647;28;20570;-72
2023/09/16 02:12:06;;;;;;;4.60;4.20;;;16.80;99.90;;;;;;5021474;28;20530;-71
2023/09/16 02:14:37;;;;;;;4.97;4.10;;;16.80;99.90;;;;;;5032873;28;20418;-72
2023/09/16 02:17:03;;;;;;;5.43;4.10;;;16.80;99.90;;;;;;5019602;28;20169;-72
2023/09/16 02:19:29;;;;;;;4.43;3.73;;;16.80;99.90;;;;;;5013361;28;20902;-72
2023/09/16 02:21:54;;;;;;;3.80;3.50;;;16.90;99.90;;;;;;5026695;28;20433;-72
2023/09/16 02:24:20;;;;;;;3.87;3.40;;;16.90;99.90;;;;;;5031298;28;20230;-72
2023/09/16 02:26:45;;;;;;;5.50;4.23;;;16.90;99.90;;;;;;5032632;28;20175;-72
2023/09/16 02:29:11;;;;;;;4.20;3.80;;;16.90;99.90;;;;;;5032714;28;20167;-72
2023/09/16 02:31:36;;;;;;;4.00;3.60;;;16.90;99.90;;;;;;5032555;28;20168;-72
2023/09/16 02:34:02;;;;;;;7.50;3.87;;;16.90;99.90;;;;;;5032304;28;20249;-72
2023/09/16 02:36:28;;;;;;;5.77;3.83;;;17.00;99.90;;;;;;5032736;28;20319;-72
2023/09/16 02:38:53;;;;;;;8.10;7.27;;;17.00;99.90;;;;;;5032621;28;20274;-72
2023/09/16 02:41:19;;;;;;;8.77;7.57;;;17.00;99.90;;;;;;5014445;28;20646;-72
2023/09/16 02:43:46;;;;;;;4.80;4.30;;;17.00;99.90;;;;;;5032220;28;20555;-72
2023/09/16 02:46:12;;;;;;;4.67;4.13;;;16.90;99.90;;;;;;5032530;28;20231;-72
2023/09/16 02:48:38;;;;;;;19.47;13.70;;;16.90;99.90;;;;;;5032363;28;20441;-72
2023/09/16 02:51:03;;;;;;;22.60;14.80;;;17.00;99.90;;;;;;5032533;28;20596;-73
2023/09/16 02:53:29;;;;;;;12.50;10.50;;;17.00;99.90;;;;;;5032028;28;20191;-71
2023/09/16 02:55:55;;;;;;;5.70;4.90;;;17.00;99.90;;;;;;5031050;28;20206;-72
2023/09/16 02:58:22;;;;;;;6.73;5.80;;;17.00;99.90;;;;;;5032328;28;20407;-71
2023/09/16 03:00:47;;;;;;;8.30;4.90;;;16.90;99.90;;;;;;5032373;28;20438;-72
2023/09/16 03:03:13;;;;;;;4.13;3.73;;;16.90;99.90;;;;;;5031889;28;20478;-72
2023/09/16 03:05:45;;;;;;;5.90;3.90;;;16.90;99.90;;;;;;5032018;28;20511;-71
2023/09/16 03:08:14;;;;;;;5.90;4.33;;;16.80;99.90;;;;;;5031895;28;20434;-72
2023/09/16 03:10:39;;;;;;;7.00;4.20;;;16.80;99.90;;;;;;5032047;28;20398;-72
2023/09/16 03:13:05;;;;;;;5.40;3.90;;;16.70;99.90;;;;;;5032063;28;20501;-72
2023/09/16 03:15:30;;;;;;;4.77;4.30;;;16.70;99.90;;;;;;5031475;28;20619;-72
2023/09/16 03:17:56;;;;;;;7.90;3.60;;;16.60;99.90;;;;;;5011121;28;20267;-73
2023/09/16 03:20:22;;;;;;;4.93;3.90;;;16.60;99.90;;;;;;5012367;28;20179;-72
2023/09/16 03:22:47;;;;;;;5.70;4.40;;;16.40;99.90;;;;;;5032292;28;20282;-72
2023/09/16 03:25:13;;;;;;;5.70;3.63;;;16.40;99.90;;;;;;5035398;28;20210;-71
2023/09/16 03:27:38;;;;;;;3.97;3.50;;;16.30;99.90;;;;;;5031654;28;20187;-71
2023/09/16 03:30:05;;;;;;;3.77;3.30;;;16.30;99.90;;;;;;5031737;28;20246;-73
2023/09/16 03:32:30;;;;;;;4.93;3.97;;;16.30;99.90;;;;;;5031751;28;20182;-72
2023/09/16 03:34:56;;;;;;;3.90;3.20;;;16.20;99.90;;;;;;5031460;28;20434;-72
2023/09/16 03:37:21;;;;;;;5.13;3.97;;;16.20;99.90;;;;;;5031708;28;20164;-71
2023/09/16 03:39:47;;;;;;;4.93;3.60;;;16.10;99.90;;;;;;5024266;28;20194;-72
2023/09/16 03:42:12;;;;;;;3.67;3.27;;;16.10;99.90;;;;;;5024784;28;20175;-72
2023/09/16 03:44:38;;;;;;;4.60;3.73;;;16.10;99.90;;;;;;5030435;28;20206;-72
2023/09/16 03:47:04;;;;;;;4.40;4.00;;;16.00;99.90;;;;;;5031678;28;20172;-71
2023/09/16 03:49:30;;;;;;;8.93;4.07;;;16.00;99.90;;;;;;5031736;28;20186;-72
2023/09/16 03:51:55;;;;;;;20.90;13.83;;;16.00;99.90;;;;;;5031461;28;20167;-72
2023/09/16 03:54:21;;;;;;;13.50;5.93;;;15.90;99.90;;;;;;5031128;28;20742;-72
2023/09/16 03:56:47;;;;;;;5.93;5.03;;;15.90;99.90;;;;;;5031409;28;20175;-72
2023/09/16 03:59:13;;;;;;;6.53;4.10;;;15.90;99.90;;;;;;5031489;28;20536;-73
2023/09/16 04:01:39;;;;;;;5.20;4.33;;;15.80;99.90;;;;;;5031419;28;20428;-72
2023/09/16 04:04:05;;;;;;;3.87;3.50;;;15.80;99.90;;;;;;5029764;28;20525;-72
2023/09/16 04:06:30;;;;;;;4.13;3.70;;;15.80;99.90;;;;;;5031376;28;20172;-72
2023/09/16 04:08:56;;;;;;;4.73;3.70;;;15.80;99.90;;;;;;5031620;28;20168;-73
2023/09/16 04:11:21;;;;;;;5.53;3.90;;;15.80;99.90;;;;;;5031465;28;20184;-73
2023/09/16 04:13:47;;;;;;;5.00;4.00;;;15.70;99.90;;;;;;5030038;28;20527;-73
2023/09/16 04:16:13;;;;;;;5.07;4.20;;;15.60;99.90;;;;;;5033460;28;20175;-72
2023/09/16 04:18:39;;;;;;;5.00;4.60;;;15.60;99.90;;;;;;5030381;28;20778;-72
2023/09/16 04:21:06;;;;;;;7.47;4.40;;;15.50;99.90;;;;;;5024012;28;20509;-72
2023/09/16 04:23:32;;;;;;;5.47;4.40;;;15.40;99.90;;;;;;5031957;28;20249;-72
2023/09/16 04:26:00;;;;;;;7.47;4.50;;;15.40;99.90;;;;;;5031104;28;20924;-72
2023/09/16 04:28:25;;;;;;;6.37;4.87;;;15.30;99.90;;;;;;5031341;28;20219;-73
2023/09/16 04:30:52;;;;;;;6.73;5.57;;;15.30;99.90;;;;;;5023009;28;20855;-72
2023/09/16 04:33:18;;;;;;;57.60;34.53;;;15.30;99.90;;;;;;5022810;28;20222;-72
2023/09/16 04:35:48;;;;;;;7.13;4.40;;;15.30;99.90;;;;;;5033097;28;20924;-72
2023/09/16 04:38:15;;;;;;;5.93;4.50;;;15.20;99.90;;;;;;5034829;28;20406;-72
2023/09/16 04:40:42;;;;;;;5.97;5.10;;;15.30;99.90;;;;;;5034755;28;20421;-72
2023/09/16 04:43:07;;;;;;;6.80;6.10;;;15.20;99.90;;;;;;5026529;28;20449;-72
2023/09/16 04:45:33;;;;;;;4.27;3.87;;;15.20;99.90;;;;;;5034223;28;20963;-71
2023/09/16 04:48:00;;;;;;;5.27;4.53;;;15.20;99.90;;;;;;5034432;28;20247;-71
2023/09/16 04:50:28;;;;;;;6.43;4.40;;;15.20;99.90;;;;;;5026345;28;20167;-72
2023/09/16 04:52:54;;;;;;;9.93;4.70;;;15.10;99.90;;;;;;5034431;28;20410;-73
2023/09/16 04:55:20;;;;;;;8.30;4.47;;;15.10;99.90;;;;;;5034606;28;20469;-72
2023/09/16 04:57:46;;;;;;;5.53;4.70;;;15.10;99.90;;;;;;5033325;28;20505;-72
2023/09/16 05:00:12;;;;;;;5.47;4.77;;;15.10;99.90;;;;;;5032950;28;21033;-72
2023/09/16 05:02:37;;;;;;;7.10;4.60;;;15.00;99.90;;;;;;5041677;28;20278;-72
2023/09/16 05:05:03;;;;;;;5.07;4.50;;;15.00;99.90;;;;;;5034035;28;20828;-72
2023/09/16 05:07:29;;;;;;;12.20;5.60;;;15.00;99.90;;;;;;5026504;28;20246;-72
2023/09/16 05:09:56;;;;;;;6.27;5.07;;;15.00;99.90;;;;;;5034208;28;20164;-72
2023/09/16 05:12:21;;;;;;;5.27;4.57;;;15.00;99.90;;;;;;5034221;28;20167;-72
2023/09/16 05:14:48;;;;;;;7.53;4.60;;;15.10;99.90;;;;;;5034008;28;20488;-72
2023/09/16 05:17:14;;;;;;;5.00;4.50;;;15.10;99.90;;;;;;5034215;28;20159;-72
2023/09/16 05:19:39;;;;;;;5.83;3.50;;;15.10;99.90;;;;;;5034291;28;20410;-72
2023/09/16 05:22:05;;;;;;;8.20;4.43;;;15.10;99.90;;;;;;5033115;28;20171;-72
2023/09/16 05:24:31;;;;;;;5.37;4.83;;;15.20;99.90;;;;;;5033699;28;20658;-72
2023/09/16 05:26:57;;;;;;;6.57;5.20;;;15.10;99.90;;;;;;5034725;28;20175;-72
2023/09/16 05:29:22;;;;;;;5.93;4.57;;;15.10;99.90;;;;;;5033986;28;20437;-72
2023/09/16 05:31:48;;;;;;;6.50;5.40;;;15.10;99.90;;;;;;5033752;28;20172;-72
2023/09/16 05:34:14;;;;;;;8.23;5.20;;;15.10;99.90;;;;;;5033432;28;20246;-72
2023/09/16 05:36:39;;;;;;;5.87;5.03;;;15.10;99.90;;;;;;5033958;28;20407;-72
2023/09/16 05:39:05;;;;;;;10.33;5.83;;;15.20;99.90;;;;;;5033529;28;20176;-72
2023/09/16 05:41:30;;;;;;;6.70;5.80;;;15.20;99.90;;;;;;5033779;28;20642;-73
2023/09/16 05:43:56;;;;;;;5.63;5.03;;;15.20;99.90;;;;;;5032036;28;20688;-71
2023/09/16 05:46:23;;;;;;;7.17;5.30;;;15.30;99.90;;;;;;5032896;28;20163;-72
2023/09/16 05:48:49;;;;;;;5.47;4.90;;;15.40;99.90;;;;;;5033620;28;20210;-72
2023/09/16 05:51:15;;;;;;;6.60;5.40;;;15.50;99.90;;;;;;5033696;28;20399;-72
2023/09/16 05:53:41;;;;;;;5.77;5.17;;;15.60;99.90;;;;;;5033383;28;21000;-72
2023/09/16 05:56:08;;;;;;;9.00;5.70;;;15.60;99.90;;;;;;5032366;28;20585;-72
2023/09/16 05:58:35;;;;;;;13.20;5.70;;;15.70;99.90;;;;;;5033597;28;20413;-72
2023/09/16 06:01:00;;;;;;;8.23;5.20;;;15.70;99.90;;;;;;5032233;28;20414;-72
2023/09/16 06:03:26;;;;;;;6.90;5.57;;;15.80;99.90;;;;;;5029670;28;20864;-72
2023/09/16 06:05:59;;;;;;;6.73;5.30;;;15.80;99.90;;;;;;5012536;28;20172;-72
2023/09/16 06:08:25;;;;;;;6.23;5.23;;;15.90;99.90;;;;;;5013673;28;20196;-72
2023/09/16 06:10:50;;;;;;;6.33;5.73;;;16.10;99.90;;;;;;5013503;28;20983;-72
2023/09/16 06:13:16;;;;;;;11.30;7.93;;;16.30;99.90;;;;;;5013364;28;20191;-72
2023/09/16 06:15:43;;;;;;;7.07;5.97;;;16.50;99.90;;;;;;5013342;28;20543;-72
2023/09/16 06:18:09;;;;;;;7.17;5.90;;;16.70;99.90;;;;;;5013272;28;20187;-72
2023/09/16 06:20:34;;;;;;;5.20;4.40;;;16.90;99.90;;;;;;5013351;28;20407;-72
2023/09/16 06:23:03;;;;;;;4.60;4.20;;;17.20;99.90;;;;;;5030984;28;20210;-72
2023/09/16 06:25:29;;;;;;;7.47;5.40;;;17.50;99.90;;;;;;5038024;28;20187;-72
2023/09/16 06:27:56;;;;;;;4.27;3.83;;;18.10;99.90;;;;;;5036878;28;20418;-72
2023/09/16 06:30:21;;;;;;;4.10;3.73;;;18.70;99.90;;;;;;5028359;28;20806;-72
2023/09/16 06:32:47;;;;;;;4.47;3.87;;;18.80;99.90;;;;;;5032604;28;20496;-72
2023/09/16 06:35:13;;;;;;;4.17;3.77;;;18.70;99.90;;;;;;5030811;28;20233;-72
2023/09/16 06:37:38;;;;;;;4.90;3.77;;;18.70;99.90;;;;;;5031532;28;20202;-73
2023/09/16 06:40:04;;;;;;;7.50;4.20;;;18.60;99.90;;;;;;5032623;28;20178;-73
2023/09/16 06:42:30;;;;;;;6.17;4.80;;;18.70;99.90;;;;;;5032501;28;20631;-73
2023/09/16 06:44:55;;;;;;;4.57;4.17;;;18.50;99.90;;;;;;5032220;28;20458;-72
2023/09/16 06:47:26;;;;;;;4.77;4.07;;;18.60;99.90;;;;;;5031317;28;20178;-72
2023/09/16 06:49:52;;;;;;;5.40;4.50;;;18.90;99.90;;;;;;5032484;28;20163;-72
2023/09/16 06:52:17;;;;;;;4.30;3.80;;;18.90;99.90;;;;;;5032508;28;20398;-72
2023/09/16 06:54:43;;;;;;;5.10;4.50;;;18.90;99.90;;;;;;5032060;28;20573;-72
2023/09/16 06:57:08;;;;;;;4.37;3.97;;;19.10;99.90;;;;;;5032306;28;20250;-73
2023/09/16 06:59:34;;;;;;;3.60;3.10;;;19.10;99.90;;;;;;5031094;28;20579;-72
2023/09/16 07:02:00;;;;;;;4.93;4.03;;;19.10;99.90;;;;;;5032303;28;20518;-72
2023/09/16 07:04:26;;;;;;;6.10;3.87;;;19.10;99.90;;;;;;5031919;28;20203;-73
2023/09/16 07:06:51;;;;;;;5.50;4.27;;;19.20;99.90;;;;;;5038127;28;20168;-73
2023/09/16 07:09:17;;;;;;;4.23;3.40;;;19.20;99.90;;;;;;5036111;28;20414;-73
2023/09/16 07:11:43;;;;;;;5.50;5.00;;;19.30;99.90;;;;;;5043646;28;20193;-72
2023/09/16 07:14:09;;;;;;;4.97;4.47;;;19.20;99.90;;;;;;5022689;28;20191;-72
2023/09/16 07:16:36;;;;;;;4.50;4.10;;;19.20;99.90;;;;;;5031903;28;20418;-72
2023/09/16 07:19:02;;;;;;;4.73;4.33;;;19.40;99.90;;;;;;5031959;28;20190;-72
2023/09/16 07:21:27;;;;;;;4.33;4.00;;;19.70;99.90;;;;;;5029980;28;21144;-72
2023/09/16 07:23:55;;;;;;;4.80;4.40;;;20.20;99.90;;;;;;5032353;28;20211;-72
2023/09/16 07:26:20;;;;;;;4.27;3.87;;;20.50;99.90;;;;;;5025527;28;20187;-72
2023/09/16 07:28:46;;;;;;;5.20;3.63;;;20.50;99.90;;;;;;5031840;28;20768;-72
2023/09/16 07:31:11;;;;;;;6.80;4.40;;;20.40;99.90;;;;;;5023648;28;20199;-72
2023/09/16 07:33:37;;;;;;;4.50;4.10;;;20.40;99.90;;;;;;5031510;28;20274;-72
2023/09/16 07:36:02;;;;;;;4.30;3.90;;;20.40;99.90;;;;;;5030579;28;20545;-72
2023/09/16 07:38:28;;;;;;;6.43;3.00;;;20.50;99.90;;;;;;5032033;28;20168;-72
2023/09/16 07:40:53;;;;;;;4.43;4.03;;;20.60;99.90;;;;;;5031808;28;20247;-72
2023/09/16 07:43:20;;;;;;;4.53;4.13;;;20.70;99.90;;;;;;5031665;28;20286;-72
2023/09/16 07:45:45;;;;;;;4.00;3.60;;;20.70;99.90;;;;;;5031800;28;20614;-72
2023/09/16 07:48:11;;;;;;;3.90;3.50;;;20.80;99.90;;;;;;5031699;28;20460;-72
2023/09/16 07:50:36;;;;;;;4.43;4.03;;;20.80;99.90;;;;;;5031854;28;20160;-72
2023/09/16 07:53:02;;;;;;;5.23;4.00;;;20.90;99.90;;;;;;5031711;28;20167;-73
2023/09/16 07:55:27;;;;;;;4.80;4.30;;;20.90;99.90;;;;;;5031387;28;20207;-71
2023/09/16 07:57:53;;;;;;;5.23;3.90;;;20.90;99.90;;;;;;5031632;28;20546;-71
2023/09/16 08:00:18;;;;;;;4.57;3.73;;;21.10;99.90;;;;;;5031426;28;20171;-71
2023/09/16 08:02:44;;;;;;;4.17;3.83;;;21.30;99.90;;;;;;5032825;28;20346;-70
2023/09/16 08:05:10;;;;;;;3.93;3.40;;;21.40;99.90;;;;;;5031291;28;20187;-71
2023/09/16 08:07:35;;;;;;;6.60;4.43;;;22.00;99.90;;;;;;5031546;28;20472;-71
2023/09/16 08:10:02;;;;;;;3.50;3.20;;;23.20;99.90;;;;;;5032737;28;20503;-74
2023/09/16 08:12:28;;;;;;;5.53;3.93;;;24.10;99.90;;;;;;5035605;28;20553;-75
2023/09/16 08:14:53;;;;;;;4.70;3.50;;;24.80;99.90;;;;;;5035307;28;20521;-76
2023/09/16 08:17:19;;;;;;;4.17;3.77;;;25.50;99.90;;;;;;5035834;28;20174;-75
2023/09/16 08:19:44;;;;;;;5.47;3.50;;;26.10;99.90;;;;;;5035648;28;20235;-76
2023/09/16 08:22:10;;;;;;;4.53;3.57;;;26.50;99.90;;;;;;5035572;28;20167;-75
2023/09/16 08:24:35;;;;;;;4.53;3.87;;;27.30;99.90;;;;;;5035056;28;20191;-75
2023/09/16 08:27:01;;;;;;;3.97;3.57;;;28.20;99.20;;;;;;5035424;28;20167;-75
2023/09/16 08:29:26;;;;;;;4.10;3.63;;;29.30;95.20;;;;;;5035980;28;20252;-76
2023/09/16 08:31:52;;;;;;;8.10;3.70;;;31.20;91.40;;;;;;5035646;28;20183;-77
2023/09/16 08:34:17;;;;;;;4.20;2.93;;;33.10;70.70;;;;;;5033687;28;20207;-77
2023/09/16 08:36:43;;;;;;;4.83;3.23;;;35.00;58.40;;;;;;5034078;28;20178;-77
2023/09/16 08:39:09;;;;;;;3.27;2.97;;;36.30;53.00;;;;;;5035115;28;20650;-77
2023/09/16 08:41:53;;;;;;;4.23;3.03;;;37.70;47.70;;;;;;5035099;28;20171;-77
2023/09/16 08:44:22;;;;;;;4.07;3.47;;;39.00;43.10;;;;;;5034653;28;20450;-77
2023/09/16 08:46:58;;;;;;;3.70;3.40;;;39.90;40.10;;;;;;5034890;28;20773;-76
2023/09/16 08:49:27;;;;;;;3.47;3.17;;;40.10;37.70;;;;;;5034848;28;20417;-78
2023/09/16 08:51:55;;;;;;;3.83;3.53;;;40.80;37.80;;;;;;5033349;28;20411;-77
2023/09/16 08:54:22;;;;;;;3.50;3.23;;;41.40;35.30;;;;;;5034338;28;20449;-78
2023/09/16 08:56:49;;;;;;;3.50;3.20;;;42.10;35.40;;;;;;5034700;28;20406;-77
2023/09/16 08:59:14;;;;;;;4.00;3.60;;;43.00;33.50;;;;;;5034647;28;20460;-77
2023/09/16 09:01:42;;;;;;;4.03;3.73;;;43.80;33.50;;;;;;5033365;28;20418;-76
2023/09/16 09:04:09;;;;;;;4.13;3.83;;;44.80;31.20;;;;;;5033021;28;20734;-76
2023/09/16 09:06:36;;;;;;;4.87;3.67;;;45.70;30.90;;;;;;5034436;28;20411;-76
2023/09/16 09:09:01;;;;;;;6.30;4.73;;;46.20;28.40;;;;;;5034558;28;20376;-76
2023/09/16 09:11:30;;;;;;;5.73;4.83;;;46.40;28.50;;;;;;5033127;28;20415;-77
2023/09/16 09:13:59;;;;;;;4.03;3.60;;;47.00;27.70;;;;;;5033982;28;20187;-77
2023/09/16 09:16:26;;;;;;;5.40;3.70;;;47.90;27.80;;;;;;5034352;28;20410;-76
2023/09/16 09:18:56;;;;;;;5.73;3.50;;;48.90;27.40;;;;;;5034356;28;20438;-76
2023/09/16 09:21:22;;;;;;;4.73;4.33;;;49.80;27.00;;;;;;5033496;28;20741;-76
2023/09/16 09:23:47;;;;;;;4.33;4.03;;;50.70;26.80;;;;;;5053748;28;20431;-76
2023/09/16 09:26:13;;;;;;;4.23;3.93;;;51.10;24.50;;;;;;5044351;28;20730;-76
2023/09/16 09:28:38;;;;;;;6.33;4.60;;;51.80;24.90;;;;;;5038407;28;20262;-76
2023/09/16 09:31:04;;;;;;;7.23;4.57;;;51.90;24.10;;;;;;5033429;28;20167;-76
2023/09/16 09:33:30;;;;;;;4.03;3.73;;;51.80;23.40;;;;;;5031896;28;20199;-76
2023/09/16 09:36:11;;;;;;;4.93;3.83;;;52.30;24.20;;;;;;5033368;28;20171;-75
2023/09/16 09:38:46;;;;;;;4.47;4.07;;;52.70;23.90;;;;;;5033922;28;20160;-76
2023/09/16 09:41:13;;;;;;;6.00;4.73;;;53.20;23.70;;;;;;5037653;28;20379;-76
2023/09/16 09:43:39;;;;;;;5.87;5.37;;;53.60;23.70;;;;;;5053229;28;20945;-76
2023/09/16 09:46:05;;;;;;;4.70;4.40;;;54.00;23.40;;;;;;5053452;28;20389;-75
2023/09/16 09:48:32;;;;;;;5.97;5.40;;;54.70;23.30;;;;;;5053371;28;20284;-76
2023/09/16 09:50:59;;;;;;;5.30;5.00;;;54.90;21.60;;;;;;5053386;28;20436;-76
2023/09/16 09:53:26;;;;;;;5.43;5.03;;;55.10;21.50;;;;;;5051978;28;20448;-77
2023/09/16 09:55:52;;;;;;;5.30;4.80;;;54.60;20.80;;;;;;5053406;28;20450;-76
2023/09/16 09:58:18;;;;;;;5.10;4.80;;;55.10;22.10;;;;;;5052065;28;20417;-76
2023/09/16 10:00:51;;;;;;;5.17;4.80;;;55.70;21.80;;;;;;5053323;28;20427;-76
2023/09/16 10:03:22;;;;;;;6.20;5.60;;;56.40;21.70;;;;;;5052462;28;20224;-76
2023/09/16 10:05:47;;;;;;;7.40;6.80;;;57.30;21.60;;;;;;5037745;28;20376;-76
2023/09/16 10:08:16;;;;;;;7.20;6.70;;;57.60;20.10;;;;;;5033265;28;20916;-78
2023/09/16 10:10:41;;;;;;;6.80;6.37;;;57.20;19.80;;;;;;5033404;28;20163;-76
2023/09/16 10:13:08;;;;;;;6.63;5.40;;;55.60;19.60;;;;;;5033272;28;20417;-77
2023/09/16 10:15:36;;;;;;;6.07;5.57;;;56.00;20.10;;;;;;5032761;28;20285;-76
2023/09/16 10:18:03;;;;;;;4.40;4.20;;;56.10;20.10;;;;;;5033096;28;20409;-76
2023/09/16 10:20:36;;;;;;;6.30;5.80;;;56.70;20.90;;;;;;5031350;28;20453;-76
2023/09/16 10:23:02;;;;;;;5.53;5.13;;;56.90;20.30;;;;;;5034244;28;20794;-76
2023/09/16 10:25:28;;;;;;;5.40;5.00;;;57.60;20.60;;;;;;5032540;28;20445;-78
2023/09/16 10:27:58;;;;;;;5.50;5.20;;;58.40;21.00;;;;;;5032511;28;20167;-76
2023/09/16 10:30:27;;;;;;;6.87;6.40;;;58.80;20.00;;;;;;5012661;28;20395;-76
2023/09/16 10:32:53;;;;;;;6.17;5.77;;;59.40;20.10;;;;;;5012511;28;20497;-76
2023/09/16 10:35:22;;;;;;;5.23;4.93;;;60.00;19.90;;;;;;5012982;28;20423;-77
2023/09/16 10:37:50;;;;;;;5.47;5.28;;;60.60;19.50;;;;;;5013197;28;20565;-73
2023/09/16 10:40:18;;;;;;;7.17;6.77;;;60.80;19.00;;;;;;5012961;28;20168;-76
2023/09/16 10:42:45;;;;;;;6.80;6.40;;;60.50;18.70;;;;;;5012992;28;20434;-77
2023/09/16 10:45:13;;;;;;;5.33;5.03;;;60.40;17.70;;;;;;5011013;28;20206;-77
2023/09/16 10:47:39;;;;;;;6.00;5.70;;;60.70;18.40;;;;;;5011481;28;20457;-73
2023/09/16 10:50:05;;;;;;;5.90;5.60;;;61.20;18.50;;;;;;5012882;28;20893;-71
2023/09/16 10:52:41;;;;;;;7.03;6.63;;;60.80;17.70;;;;;;5011378;28;20421;-72
2023/09/16 10:55:19;;;;;;;5.47;5.17;;;60.60;18.40;;;;;;5011210;28;20578;-71
2023/09/16 10:58:09;;;;;;;6.43;5.93;;;60.40;18.20;;;;;;5012649;28;20441;-72
2023/09/16 11:00:46;;;;;;;5.87;5.53;;;60.30;18.30;;;;;;5012819;28;20402;-72
2023/09/16 11:03:14;;;;;;;5.30;5.00;;;60.30;18.10;;;;;;5012497;28;20410;-72
2023/09/16 11:05:39;;;;;;;5.70;5.30;;;60.00;18.80;;;;;;5010818;28;20418;-73
2023/09/16 11:08:06;;;;;;;5.20;4.70;;;59.80;18.50;;;;;;5012515;28;20403;-71
2023/09/16 11:10:33;;;;;;;5.57;5.27;;;59.70;18.30;;;;;;5012555;28;20195;-72
2023/09/16 11:12:59;;;;;;;5.30;5.00;;;59.70;18.10;;;;;;5012331;28;20861;-70
2023/09/16 11:15:34;;;;;;;5.80;5.40;;;59.50;18.30;;;;;;5013886;28;20921;-69
2023/09/16 11:18:02;;;;;;;5.27;4.87;;;59.70;18.30;;;;;;5034858;28;20420;-70
2023/09/16 11:20:31;;;;;;;5.57;5.37;;;59.80;18.20;;;;;;5036412;28;20437;-70
2023/09/16 11:23:03;;;;;;;5.60;5.30;;;60.00;18.00;;;;;;5036062;28;20421;-72
2023/09/16 11:25:35;;;;;;;5.43;5.13;;;59.50;17.40;;;;;;5029655;28;20445;-72
2023/09/16 11:28:03;;;;;;;5.63;5.33;;;59.40;17.70;;;;;;5030660;28;20410;-72
2023/09/16 11:30:30;;;;;;;17.77;16.60;;;59.40;18.10;;;;;;5032043;28;20413;-71
2023/09/16 11:32:56;;;;;;;11.27;10.57;;;59.40;18.30;;;;;;5031789;28;20808;-72
2023/09/16 11:35:23;;;;;;;5.60;5.10;;;59.50;18.60;;;;;;5037147;28;20426;-71
2023/09/16 11:37:48;;;;;;;5.77;5.27;;;59.60;18.30;;;;;;5031954;28;20175;-72
2023/09/16 11:40:14;;;;;;;5.17;4.97;;;59.80;18.00;;;;;;5037525;28;21029;-72
2023/09/16 11:42:40;;;;;;;5.20;4.90;;;60.00;17.80;;;;;;5031756;28;20170;-71
2023/09/16 11:45:06;;;;;;;7.27;6.87;;;60.10;17.90;;;;;;5033503;28;20904;-69
2023/09/16 11:47:32;;;;;;;5.40;5.10;;;58.90;17.10;;;;;;5035901;28;20265;-69
2023/09/16 11:49:58;;;;;;;5.03;4.63;;;59.00;18.30;;;;;;5035947;28;20814;-69
2023/09/16 11:52:24;;;;;;;5.57;5.17;;;59.00;18.40;;;;;;5035909;28;20195;-69
2023/09/16 11:54:51;;;;;;;5.20;4.90;;;59.30;18.60;;;;;;5039931;28;20240;-72
2023/09/16 11:57:17;;;;;;;4.80;4.50;;;59.30;18.40;;;;;;5035707;28;20414;-72
2023/09/16 11:59:44;;;;;;;4.93;4.40;;;59.20;18.20;;;;;;5035585;28;20892;-73
2023/09/16 12:02:10;;;;;;;5.77;5.37;;;59.00;18.30;;;;;;5035727;28;20405;-71
2023/09/16 12:04:36;;;;;;;5.40;5.10;;;58.80;18.40;;;;;;5035367;28;20429;-72
2023/09/16 12:07:04;;;;;;;4.30;4.10;;;58.80;18.40;;;;;;5035693;28;20424;-72
2023/09/16 12:09:30;;;;;;;5.80;5.43;;;59.10;18.20;;;;;;5035542;28;20433;-72
2023/09/16 12:11:56;;;;;;;5.37;4.90;;;59.20;18.50;;;;;;5035529;28;20398;-72
2023/09/16 12:14:21;;;;;;;4.70;4.40;;;59.20;18.80;;;;;;5035090;28;21000;-73
2023/09/16 12:16:52;;;;;;;5.23;4.97;;;59.20;18.50;;;;;;5035465;28;20171;-72
2023/09/16 12:19:18;;;;;;;4.70;4.40;;;58.40;17.60;;;;;;5035398;28;20159;-71
2023/09/16 12:21:48;;;;;;;5.10;4.70;;;58.40;18.30;;;;;;5035335;28;20911;-72
2023/09/16 12:24:21;;;;;;;4.13;3.93;;;57.90;17.70;;;;;;5036401;28;20199;-72
2023/09/16 12:26:48;;;;;;;4.20;4.00;;;56.80;18.10;;;;;;5035221;28;20413;-71
2023/09/16 12:29:14;;;;;;;5.10;4.80;;;55.90;18.90;;;;;;5041322;28;20835;-71
2023/09/16 12:31:39;;;;;;;4.83;4.53;;;55.20;18.70;;;;;;5035000;28;20409;-73
2023/09/16 12:34:05;;;;;;;4.10;3.90;;;54.20;18.80;;;;;;5039540;28;20206;-71
2023/09/16 12:36:31;;;;;;;4.23;3.93;;;53.80;19.90;;;;;;5034952;28;20214;-71
2023/09/16 12:38:59;;;;;;;9.90;9.10;;;53.60;20.20;;;;;;5038730;28;20703;-71
2023/09/16 12:41:26;;;;;;;6.93;6.30;;;53.20;20.40;;;;;;5035225;28;20167;-72
2023/09/16 12:43:53;;;;;;;7.27;6.77;;;52.80;20.60;;;;;;5034656;28;20529;-72